Portada
METAR-TAF:

METAR-TAF

Aeroports :

Plataforma petroliera

K13-a, Països Baixos

latitud: 53-13-04N, longitud: 3-13-13E, altitud: 31 m

Observació

L'informe es va fer fa 23 minuts, a les 16:55 UTC
Vent 9 kt del Nord/Nord-Est
Temperatura 6°C
Humitat 81%
Pressió 1032 hPa

METAR: EHJR 151655Z AUTO 03009KT //// // ///////// 06/03 Q1032 RE// W07/H8

Hora: 19:18 (17:18 UTC)


TAF: manca

Observacions i pronòstics meteorològics de més de 4000 aeroports (METAR i TAF).

Les estacions disponibles són els punts grocs i vermells al mapa.

Posi el ratolí al punt desitjat per veure el nom de l'estació.

Feu clic per veure les observacions i els pronòstics meteorològics.

Per canviar el mapa: feu clic els botons verds amb una creu de color negre per apropar; al botó verd amb un guió per allunyar la imatge; o en les fletxes verdes per a mapes adjacents.


METAR-TAF: